sensor_id;sensor_type;location;lat;lon;timestamp;P1;durP1;ratioP1;P2;durP2;ratioP2
65535;SDS011;52145;49.342;9.116;2022-09-17T00:01:07;2.72;;;1.00;;
65535;SDS011;52145;49.342;9.116;2022-09-17T00:03:34;2.30;;;1.20;;
65535;SDS011;52145;49.342;9.116;2022-09-17T00:06:01;3.03;;;0.90;;
65535;SDS011;52145;49.342;9.116;2022-09-17T00:08:28;1.77;;;1.02;;
65535;SDS011;52145;49.342;9.116;2022-09-17T00:10:54;1.80;;;0.98;;
65535;SDS011;52145;49.342;9.116;2022-09-17T00:13:20;1.67;;;0.90;;
65535;SDS011;52145;49.342;9.116;2022-09-17T00:15:46;2.78;;;1.00;;
65535;SDS011;52145;49.342;9.116;2022-09-17T00:18:12;2.03;;;0.90;;
65535;SDS011;52145;49.342;9.116;2022-09-17T00:20:43;1.60;;;0.70;;
65535;SDS011;52145;49.342;9.116;2022-09-17T00:23:10;2.92;;;1.08;;
65535;SDS011;52145;49.342;9.116;2022-09-17T00:25:37;3.65;;;1.13;;
65535;SDS011;52145;49.342;9.116;2022-09-17T00:28:04;1.73;;;0.85;;
65535;SDS011;52145;49.342;9.116;2022-09-17T00:30:30;2.22;;;1.23;;
65535;SDS011;52145;49.342;9.116;2022-09-17T00:32:55;2.95;;;0.95;;
65535;SDS011;52145;49.342;9.116;2022-09-17T00:35:23;1.98;;;1.13;;
65535;SDS011;52145;49.342;9.116;2022-09-17T00:37:49;2.35;;;1.20;;
65535;SDS011;52145;49.342;9.116;2022-09-17T00:40:15;1.45;;;0.90;;
65535;SDS011;52145;49.342;9.116;2022-09-17T00:42:40;3.03;;;1.20;;
65535;SDS011;52145;49.342;9.116;2022-09-17T00:45:06;2.20;;;1.50;;
65535;SDS011;52145;49.342;9.116;2022-09-17T00:50:06;2.25;;;1.30;;
65535;SDS011;52145;49.342;9.116;2022-09-17T00:52:54;2.78;;;1.00;;
65535;SDS011;52145;49.342;9.116;2022-09-17T00:55:24;4.07;;;1.08;;
65535;SDS011;52145;49.342;9.116;2022-09-17T00:58:05;2.80;;;1.20;;
65535;SDS011;52145;49.342;9.116;2022-09-17T01:00:33;7.15;;;1.00;;
65535;SDS011;52145;49.342;9.116;2022-09-17T01:02:59;3.08;;;1.20;;
65535;SDS011;52145;49.342;9.116;2022-09-17T01:05:44;2.17;;;1.10;;
65535;SDS011;52145;49.342;9.116;2022-09-17T01:29:34;1.92;;;0.85;;
65535;SDS011;52145;49.342;9.116;2022-09-17T01:32:17;3.53;;;1.58;;
65535;SDS011;52145;49.342;9.116;2022-09-17T01:35:18;2.58;;;0.90;;
65535;SDS011;52145;49.342;9.116;2022-09-17T01:38:12;3.05;;;1.08;;
65535;SDS011;52145;49.342;9.116;2022-09-17T01:40:51;1.50;;;0.80;;
65535;SDS011;52145;49.342;9.116;2022-09-17T01:43:41;2.90;;;0.70;;
65535;SDS011;52145;49.342;9.116;2022-09-17T01:46:23;4.82;;;1.00;;
65535;SDS011;52145;49.342;9.116;2022-09-17T01:48:58;1.60;;;0.80;;
65535;SDS011;52145;49.342;9.116;2022-09-17T01:51:28;1.77;;;0.88;;
65535;SDS011;52145;49.342;9.116;2022-09-17T01:54:04;3.35;;;0.68;;
65535;SDS011;52145;49.342;9.116;2022-09-17T01:59:58;2.15;;;0.70;;
65535;SDS011;52145;49.342;9.116;2022-09-17T02:02:40;2.42;;;0.77;;
65535;SDS011;52145;49.342;9.116;2022-09-17T02:05:36;4.63;;;1.30;;
65535;SDS011;52145;49.342;9.116;2022-09-17T02:08:07;2.88;;;0.90;;
65535;SDS011;52145;49.342;9.116;2022-09-17T02:10:37;3.70;;;1.02;;
65535;SDS011;52145;49.342;9.116;2022-09-17T02:13:09;3.85;;;1.13;;
65535;SDS011;52145;49.342;9.116;2022-09-17T02:15:51;2.13;;;0.80;;
65535;SDS011;52145;49.342;9.116;2022-09-17T02:21:04;3.40;;;0.80;;
65535;SDS011;52145;49.342;9.116;2022-09-17T02:23:36;4.72;;;1.10;;
65535;SDS011;52145;49.342;9.116;2022-09-17T02:26:09;2.08;;;0.77;;
65535;SDS011;52145;49.342;9.116;2022-09-17T02:28:40;1.63;;;0.77;;
65535;SDS011;52145;49.342;9.116;2022-09-17T02:31:19;4.30;;;1.80;;
65535;SDS011;52145;49.342;9.116;2022-09-17T02:33:49;5.68;;;1.20;;
65535;SDS011;52145;49.342;9.116;2022-09-17T02:36:18;3.25;;;0.90;;
65535;SDS011;52145;49.342;9.116;2022-09-17T02:38:44;3.67;;;1.73;;
65535;SDS011;52145;49.342;9.116;2022-09-17T02:41:15;4.63;;;1.05;;
65535;SDS011;52145;49.342;9.116;2022-09-17T02:44:20;7.78;;;1.25;;
65535;SDS011;52145;49.342;9.116;2022-09-17T02:47:06;3.80;;;1.05;;
65535;SDS011;52145;49.342;9.116;2022-09-17T02:50:01;1.33;;;1.02;;
65535;SDS011;52145;49.342;9.116;2022-09-17T02:52:46;2.97;;;0.85;;
65535;SDS011;52145;49.342;9.116;2022-09-17T02:55:17;3.13;;;0.90;;
65535;SDS011;52145;49.342;9.116;2022-09-17T02:57:59;4.60;;;0.80;;
65535;SDS011;52145;49.342;9.116;2022-09-17T03:00:40;2.30;;;1.08;;
65535;SDS011;52145;49.342;9.116;2022-09-17T03:03:09;1.98;;;0.90;;
65535;SDS011;52145;49.342;9.116;2022-09-17T03:05:39;3.00;;;1.10;;
65535;SDS011;52145;49.342;9.116;2022-09-17T03:08:06;6.88;;;2.25;;
65535;SDS011;52145;49.342;9.116;2022-09-17T03:10:36;1.98;;;1.00;;
65535;SDS011;52145;49.342;9.116;2022-09-17T03:13:02;6.15;;;1.20;;
65535;SDS011;52145;49.342;9.116;2022-09-17T03:15:28;2.33;;;0.75;;
65535;SDS011;52145;49.342;9.116;2022-09-17T03:17:53;4.15;;;1.05;;
65535;SDS011;52145;49.342;9.116;2022-09-17T03:20:19;2.80;;;0.93;;
65535;SDS011;52145;49.342;9.116;2022-09-17T03:22:45;4.28;;;1.17;;
65535;SDS011;52145;49.342;9.116;2022-09-17T03:25:11;2.92;;;0.82;;
65535;SDS011;52145;49.342;9.116;2022-09-17T03:27:36;5.97;;;1.40;;
65535;SDS011;52145;49.342;9.116;2022-09-17T03:30:02;2.47;;;1.02;;
65535;SDS011;52145;49.342;9.116;2022-09-17T03:32:29;7.25;;;1.90;;
65535;SDS011;52145;49.342;9.116;2022-09-17T03:34:54;5.10;;;1.80;;
65535;SDS011;52145;49.342;9.116;2022-09-17T03:37:20;4.20;;;1.20;;
65535;SDS011;52145;49.342;9.116;2022-09-17T03:39:45;4.07;;;1.00;;
65535;SDS011;52145;49.342;9.116;2022-09-17T03:42:11;3.83;;;0.88;;
65535;SDS011;52145;49.342;9.116;2022-09-17T03:44:37;4.43;;;1.20;;
65535;SDS011;52145;49.342;9.116;2022-09-17T03:47:02;4.80;;;1.13;;
65535;SDS011;52145;49.342;9.116;2022-09-17T03:49:28;7.47;;;1.10;;
65535;SDS011;52145;49.342;9.116;2022-09-17T03:51:53;3.28;;;0.90;;
65535;SDS011;52145;49.342;9.116;2022-09-17T03:54:19;3.17;;;0.90;;
65535;SDS011;52145;49.342;9.116;2022-09-17T03:56:44;3.00;;;1.40;;
65535;SDS011;52145;49.342;9.116;2022-09-17T03:59:10;4.78;;;1.30;;
65535;SDS011;52145;49.342;9.116;2022-09-17T04:01:35;3.78;;;1.10;;
65535;SDS011;52145;49.342;9.116;2022-09-17T04:04:01;5.72;;;1.35;;
65535;SDS011;52145;49.342;9.116;2022-09-17T04:06:27;4.38;;;1.02;;
65535;SDS011;52145;49.342;9.116;2022-09-17T04:08:53;2.25;;;0.98;;
65535;SDS011;52145;49.342;9.116;2022-09-17T04:11:18;6.15;;;1.20;;
65535;SDS011;52145;49.342;9.116;2022-09-17T04:13:44;10.23;;;1.58;;
65535;SDS011;52145;49.342;9.116;2022-09-17T04:16:10;7.10;;;1.55;;
65535;SDS011;52145;49.342;9.116;2022-09-17T04:18:36;7.75;;;1.67;;
65535;SDS011;52145;49.342;9.116;2022-09-17T04:21:01;4.97;;;1.52;;
65535;SDS011;52145;49.342;9.116;2022-09-17T04:23:27;6.10;;;1.48;;
65535;SDS011;52145;49.342;9.116;2022-09-17T04:25:53;3.17;;;1.33;;
65535;SDS011;52145;49.342;9.116;2022-09-17T04:28:18;3.40;;;1.10;;
65535;SDS011;52145;49.342;9.116;2022-09-17T04:30:44;6.63;;;1.70;;
65535;SDS011;52145;49.342;9.116;2022-09-17T04:33:09;6.15;;;1.50;;
65535;SDS011;52145;49.342;9.116;2022-09-17T04:35:35;2.40;;;1.30;;
65535;SDS011;52145;49.342;9.116;2022-09-17T04:38:01;7.78;;;1.65;;
65535;SDS011;52145;49.342;9.116;2022-09-17T04:40:27;5.85;;;1.65;;
65535;SDS011;52145;49.342;9.116;2022-09-17T04:42:53;6.97;;;1.85;;
65535;SDS011;52145;49.342;9.116;2022-09-17T04:45:20;2.17;;;1.35;;
65535;SDS011;52145;49.342;9.116;2022-09-17T04:47:46;4.05;;;1.63;;
65535;SDS011;52145;49.342;9.116;2022-09-17T04:50:14;3.05;;;1.30;;
65535;SDS011;52145;49.342;9.116;2022-09-17T04:52:43;4.78;;;1.55;;
65535;SDS011;52145;49.342;9.116;2022-09-17T04:55:09;4.53;;;1.13;;
65535;SDS011;52145;49.342;9.116;2022-09-17T04:57:35;5.10;;;1.27;;
65535;SDS011;52145;49.342;9.116;2022-09-17T05:00:01;11.82;;;1.40;;
65535;SDS011;52145;49.342;9.116;2022-09-17T05:02:27;3.70;;;1.02;;
65535;SDS011;52145;49.342;9.116;2022-09-17T05:04:52;7.95;;;1.50;;
65535;SDS011;52145;49.342;9.116;2022-09-17T05:07:20;4.85;;;1.33;;
65535;SDS011;52145;49.342;9.116;2022-09-17T05:09:45;6.88;;;1.27;;
65535;SDS011;52145;49.342;9.116;2022-09-17T05:12:11;4.45;;;1.35;;
65535;SDS011;52145;49.342;9.116;2022-09-17T05:14:36;7.82;;;1.50;;
65535;SDS011;52145;49.342;9.116;2022-09-17T05:17:02;3.38;;;1.38;;
65535;SDS011;52145;49.342;9.116;2022-09-17T05:19:27;8.18;;;1.52;;
65535;SDS011;52145;49.342;9.116;2022-09-17T05:21:53;7.00;;;1.40;;
65535;SDS011;52145;49.342;9.116;2022-09-17T05:24:18;4.70;;;2.55;;
65535;SDS011;52145;49.342;9.116;2022-09-17T05:26:44;7.43;;;1.95;;
65535;SDS011;52145;49.342;9.116;2022-09-17T05:29:09;3.97;;;1.50;;
65535;SDS011;52145;49.342;9.116;2022-09-17T05:31:35;6.20;;;1.83;;
65535;SDS011;52145;49.342;9.116;2022-09-17T05:34:01;6.90;;;1.50;;
65535;SDS011;52145;49.342;9.116;2022-09-17T05:36:26;4.50;;;1.27;;
65535;SDS011;52145;49.342;9.116;2022-09-17T05:38:52;3.58;;;1.45;;
65535;SDS011;52145;49.342;9.116;2022-09-17T05:41:17;5.50;;;2.47;;
65535;SDS011;52145;49.342;9.116;2022-09-17T05:43:43;4.32;;;1.33;;
65535;SDS011;52145;49.342;9.116;2022-09-17T05:46:08;7.05;;;1.63;;
65535;SDS011;52145;49.342;9.116;2022-09-17T05:48:35;6.38;;;1.70;;
65535;SDS011;52145;49.342;9.116;2022-09-17T05:51:00;4.38;;;1.40;;
65535;SDS011;52145;49.342;9.116;2022-09-17T05:53:27;3.40;;;1.70;;
65535;SDS011;52145;49.342;9.116;2022-09-17T05:55:56;3.38;;;1.40;;
65535;SDS011;52145;49.342;9.116;2022-09-17T05:58:22;5.00;;;1.45;;
65535;SDS011;52145;49.342;9.116;2022-09-17T06:00:48;7.25;;;2.33;;
65535;SDS011;52145;49.342;9.116;2022-09-17T06:03:14;5.65;;;1.80;;
65535;SDS011;52145;49.342;9.116;2022-09-17T06:05:41;6.75;;;1.85;;
65535;SDS011;52145;49.342;9.116;2022-09-17T06:08:08;5.25;;;1.60;;
65535;SDS011;52145;49.342;9.116;2022-09-17T06:10:37;7.07;;;1.88;;
65535;SDS011;52145;49.342;9.116;2022-09-17T06:13:03;5.18;;;1.83;;
65535;SDS011;52145;49.342;9.116;2022-09-17T06:15:28;4.60;;;1.40;;
65535;SDS011;52145;49.342;9.116;2022-09-17T06:17:54;3.25;;;1.42;;
65535;SDS011;52145;49.342;9.116;2022-09-17T06:20:21;3.08;;;1.25;;
65535;SDS011;52145;49.342;9.116;2022-09-17T06:22:46;3.47;;;1.40;;
65535;SDS011;52145;49.342;9.116;2022-09-17T06:25:12;2.33;;;1.27;;
65535;SDS011;52145;49.342;9.116;2022-09-17T06:27:38;3.78;;;1.52;;
65535;SDS011;52145;49.342;9.116;2022-09-17T06:30:04;2.30;;;1.42;;
65535;SDS011;52145;49.342;9.116;2022-09-17T06:32:31;3.67;;;1.60;;
65535;SDS011;52145;49.342;9.116;2022-09-17T06:34:57;2.72;;;1.60;;
65535;SDS011;52145;49.342;9.116;2022-09-17T06:37:28;4.65;;;1.75;;
65535;SDS011;52145;49.342;9.116;2022-09-17T06:39:55;5.13;;;2.22;;
65535;SDS011;52145;49.342;9.116;2022-09-17T06:42:21;3.20;;;1.77;;
65535;SDS011;52145;49.342;9.116;2022-09-17T06:44:47;5.88;;;1.83;;
65535;SDS011;52145;49.342;9.116;2022-09-17T06:47:13;3.00;;;1.60;;
65535;SDS011;52145;49.342;9.116;2022-09-17T06:49:38;7.60;;;1.90;;
65535;SDS011;52145;49.342;9.116;2022-09-17T06:52:04;5.88;;;1.67;;
65535;SDS011;52145;49.342;9.116;2022-09-17T06:54:29;4.43;;;2.08;;
65535;SDS011;52145;49.342;9.116;2022-09-17T06:56:55;3.75;;;1.70;;
65535;SDS011;52145;49.342;9.116;2022-09-17T06:59:20;3.40;;;1.30;;
65535;SDS011;52145;49.342;9.116;2022-09-17T07:01:46;4.70;;;1.70;;
65535;SDS011;52145;49.342;9.116;2022-09-17T07:04:12;9.05;;;2.20;;
65535;SDS011;52145;49.342;9.116;2022-09-17T07:06:38;5.57;;;2.15;;
65535;SDS011;52145;49.342;9.116;2022-09-17T07:09:03;4.53;;;2.10;;
65535;SDS011;52145;49.342;9.116;2022-09-17T07:11:31;8.43;;;2.15;;
65535;SDS011;52145;49.342;9.116;2022-09-17T07:13:57;4.75;;;2.10;;
65535;SDS011;52145;49.342;9.116;2022-09-17T07:16:23;6.35;;;2.22;;
65535;SDS011;52145;49.342;9.116;2022-09-17T07:18:50;7.55;;;2.63;;
65535;SDS011;52145;49.342;9.116;2022-09-17T07:21:16;8.65;;;2.45;;
65535;SDS011;52145;49.342;9.116;2022-09-17T07:23:42;6.50;;;2.55;;
65535;SDS011;52145;49.342;9.116;2022-09-17T07:26:11;4.72;;;1.92;;
65535;SDS011;52145;49.342;9.116;2022-09-17T07:28:38;5.05;;;2.13;;
65535;SDS011;52145;49.342;9.116;2022-09-17T07:31:04;10.10;;;3.67;;
65535;SDS011;52145;49.342;9.116;2022-09-17T07:33:31;8.20;;;2.85;;
65535;SDS011;52145;49.342;9.116;2022-09-17T07:35:59;5.15;;;1.77;;
65535;SDS011;52145;49.342;9.116;2022-09-17T07:38:26;7.15;;;2.05;;
65535;SDS011;52145;49.342;9.116;2022-09-17T07:41:06;5.72;;;2.00;;
65535;SDS011;52145;49.342;9.116;2022-09-17T07:43:40;5.57;;;1.95;;
65535;SDS011;52145;49.342;9.116;2022-09-17T07:46:06;6.57;;;2.15;;
65535;SDS011;52145;49.342;9.116;2022-09-17T07:48:36;11.73;;;4.22;;
65535;SDS011;52145;49.342;9.116;2022-09-17T07:51:02;6.90;;;1.95;;
65535;SDS011;52145;49.342;9.116;2022-09-17T07:53:28;4.78;;;1.70;;
65535;SDS011;52145;49.342;9.116;2022-09-17T07:55:54;5.07;;;1.80;;
65535;SDS011;52145;49.342;9.116;2022-09-17T07:58:22;3.88;;;1.95;;
65535;SDS011;52145;49.342;9.116;2022-09-17T08:00:48;6.95;;;1.77;;
65535;SDS011;52145;49.342;9.116;2022-09-17T08:03:14;7.47;;;2.80;;
65535;SDS011;52145;49.342;9.116;2022-09-17T08:05:40;12.20;;;3.70;;
65535;SDS011;52145;49.342;9.116;2022-09-17T08:08:06;6.43;;;2.15;;
65535;SDS011;52145;49.342;9.116;2022-09-17T08:10:31;7.35;;;2.28;;
65535;SDS011;52145;49.342;9.116;2022-09-17T08:12:57;6.55;;;1.65;;
65535;SDS011;52145;49.342;9.116;2022-09-17T08:15:24;6.15;;;2.20;;
65535;SDS011;52145;49.342;9.116;2022-09-17T08:17:49;6.75;;;2.10;;
65535;SDS011;52145;49.342;9.116;2022-09-17T08:20:15;8.23;;;2.55;;
65535;SDS011;52145;49.342;9.116;2022-09-17T08:22:42;4.65;;;2.15;;
65535;SDS011;52145;49.342;9.116;2022-09-17T08:25:08;5.13;;;1.92;;
65535;SDS011;52145;49.342;9.116;2022-09-17T08:27:34;7.80;;;1.90;;
65535;SDS011;52145;49.342;9.116;2022-09-17T08:30:00;4.55;;;1.90;;
65535;SDS011;52145;49.342;9.116;2022-09-17T08:32:27;4.45;;;2.35;;
65535;SDS011;52145;49.342;9.116;2022-09-17T08:34:53;4.93;;;2.28;;
65535;SDS011;52145;49.342;9.116;2022-09-17T08:37:19;6.00;;;1.88;;
65535;SDS011;52145;49.342;9.116;2022-09-17T08:39:45;5.43;;;2.10;;
65535;SDS011;52145;49.342;9.116;2022-09-17T08:42:22;6.53;;;2.35;;
65535;SDS011;52145;49.342;9.116;2022-09-17T08:45:02;5.35;;;2.15;;
65535;SDS011;52145;49.342;9.116;2022-09-17T08:47:35;7.63;;;2.33;;
65535;SDS011;52145;49.342;9.116;2022-09-17T08:50:03;6.95;;;2.20;;
65535;SDS011;52145;49.342;9.116;2022-09-17T08:52:45;8.80;;;2.22;;
65535;SDS011;52145;49.342;9.116;2022-09-17T08:55:15;7.70;;;2.00;;
65535;SDS011;52145;49.342;9.116;2022-09-17T09:00:25;5.75;;;1.88;;
65535;SDS011;52145;49.342;9.116;2022-09-17T09:05:47;5.15;;;2.30;;
65535;SDS011;52145;49.342;9.116;2022-09-17T09:08:36;5.00;;;1.77;;
65535;SDS011;52145;49.342;9.116;2022-09-17T09:11:05;10.23;;;2.20;;
65535;SDS011;52145;49.342;9.116;2022-09-17T09:13:38;5.43;;;2.10;;
65535;SDS011;52145;49.342;9.116;2022-09-17T09:16:25;9.77;;;2.30;;
65535;SDS011;52145;49.342;9.116;2022-09-17T09:18:58;6.63;;;2.17;;
65535;SDS011;52145;49.342;9.116;2022-09-17T09:21:38;9.48;;;2.17;;
65535;SDS011;52145;49.342;9.116;2022-09-17T09:24:21;9.10;;;2.35;;
65535;SDS011;52145;49.342;9.116;2022-09-17T09:27:00;8.93;;;2.00;;
65535;SDS011;52145;49.342;9.116;2022-09-17T09:32:37;10.43;;;2.20;;
65535;SDS011;52145;49.342;9.116;2022-09-17T09:35:22;7.30;;;2.05;;
65535;SDS011;52145;49.342;9.116;2022-09-17T09:43:40;7.30;;;1.90;;
65535;SDS011;52145;49.342;9.116;2022-09-17T09:49:24;8.38;;;2.95;;
65535;SDS011;52145;49.342;9.116;2022-09-17T09:52:20;8.00;;;2.20;;
65535;SDS011;52145;49.342;9.116;2022-09-17T10:00:53;7.40;;;2.00;;
65535;SDS011;52145;49.342;9.116;2022-09-17T10:03:19;6.93;;;1.65;;
65535;SDS011;52145;49.342;9.116;2022-09-17T10:08:34;3.60;;;1.42;;
65535;SDS011;52145;49.342;9.116;2022-09-17T10:11:07;6.00;;;1.60;;
65535;SDS011;52145;49.342;9.116;2022-09-17T10:13:44;7.45;;;2.15;;
65535;SDS011;52145;49.342;9.116;2022-09-17T10:16:17;7.88;;;1.20;;
65535;SDS011;52145;49.342;9.116;2022-09-17T10:18:47;5.38;;;1.48;;
65535;SDS011;52145;49.342;9.116;2022-09-17T10:21:18;5.15;;;1.30;;
65535;SDS011;52145;49.342;9.116;2022-09-17T10:23:46;6.53;;;1.20;;
65535;SDS011;52145;49.342;9.116;2022-09-17T10:26:21;4.18;;;1.30;;
65535;SDS011;52145;49.342;9.116;2022-09-17T10:28:59;3.63;;;0.90;;
65535;SDS011;52145;49.342;9.116;2022-09-17T10:31:27;3.95;;;1.27;;
65535;SDS011;52145;49.342;9.116;2022-09-17T10:34:17;4.95;;;1.77;;
65535;SDS011;52145;49.342;9.116;2022-09-17T10:36:54;3.00;;;1.15;;
65535;SDS011;52145;49.342;9.116;2022-09-17T10:44:37;7.57;;;1.55;;
65535;SDS011;52145;49.342;9.116;2022-09-17T10:47:16;4.47;;;1.33;;
65535;SDS011;52145;49.342;9.116;2022-09-17T10:49:53;6.22;;;2.08;;
65535;SDS011;52145;49.342;9.116;2022-09-17T10:52:25;5.30;;;1.45;;
65535;SDS011;52145;49.342;9.116;2022-09-17T10:54:58;4.32;;;1.50;;
65535;SDS011;52145;49.342;9.116;2022-09-17T11:14:58;4.90;;;1.40;;
65535;SDS011;52145;49.342;9.116;2022-09-17T11:25:50;3.40;;;0.95;;
65535;SDS011;52145;49.342;9.116;2022-09-17T11:28:32;4.65;;;1.65;;
65535;SDS011;52145;49.342;9.116;2022-09-17T11:31:36;5.80;;;1.33;;
65535;SDS011;52145;49.342;9.116;2022-09-17T11:36:56;6.10;;;1.33;;
65535;SDS011;52145;49.342;9.116;2022-09-17T11:39:26;11.57;;;1.70;;
65535;SDS011;52145;49.342;9.116;2022-09-17T11:42:02;3.00;;;1.00;;
65535;SDS011;52145;49.342;9.116;2022-09-17T11:44:37;2.47;;;1.02;;
65535;SDS011;52145;49.342;9.116;2022-09-17T11:47:12;3.13;;;0.80;;
65535;SDS011;52145;49.342;9.116;2022-09-17T11:52:36;1.92;;;0.80;;
65535;SDS011;52145;49.342;9.116;2022-09-17T11:58:09;2.78;;;0.70;;
65535;SDS011;52145;49.342;9.116;2022-09-17T12:01:01;1.23;;;0.50;;
65535;SDS011;52145;49.342;9.116;2022-09-17T12:03:34;1.85;;;0.73;;
65535;SDS011;52145;49.342;9.116;2022-09-17T12:06:07;3.17;;;0.70;;
65535;SDS011;52145;49.342;9.116;2022-09-17T12:08:41;2.38;;;0.70;;
65535;SDS011;52145;49.342;9.116;2022-09-17T12:11:21;3.78;;;0.90;;
65535;SDS011;52145;49.342;9.116;2022-09-17T12:13:55;3.55;;;1.15;;
65535;SDS011;52145;49.342;9.116;2022-09-17T12:16:39;2.75;;;0.82;;
65535;SDS011;52145;49.342;9.116;2022-09-17T12:19:18;4.38;;;1.20;;
65535;SDS011;52145;49.342;9.116;2022-09-17T12:22:18;3.70;;;0.70;;
65535;SDS011;52145;49.342;9.116;2022-09-17T12:24:54;6.38;;;1.02;;
65535;SDS011;52145;49.342;9.116;2022-09-17T12:35:42;5.95;;;1.13;;
65535;SDS011;52145;49.342;9.116;2022-09-17T12:41:25;3.28;;;0.90;;
65535;SDS011;52145;49.342;9.116;2022-09-17T12:49:59;5.68;;;1.35;;
65535;SDS011;52145;49.342;9.116;2022-09-17T12:55:27;6.32;;;1.17;;
65535;SDS011;52145;49.342;9.116;2022-09-17T13:00:47;4.50;;;1.27;;
65535;SDS011;52145;49.342;9.116;2022-09-17T13:03:35;2.80;;;1.30;;
65535;SDS011;52145;49.342;9.116;2022-09-17T13:06:11;4.20;;;0.90;;
65535;SDS011;52145;49.342;9.116;2022-09-17T13:11:47;5.47;;;1.20;;
65535;SDS011;52145;49.342;9.116;2022-09-17T13:14:24;4.38;;;1.00;;
65535;SDS011;52145;49.342;9.116;2022-09-17T13:19:33;4.32;;;1.27;;
65535;SDS011;52145;49.342;9.116;2022-09-17T13:22:25;5.70;;;1.25;;
65535;SDS011;52145;49.342;9.116;2022-09-17T13:25:01;3.53;;;0.77;;
65535;SDS011;52145;49.342;9.116;2022-09-17T13:27:31;4.70;;;1.08;;
65535;SDS011;52145;49.342;9.116;2022-09-17T13:29:59;5.85;;;1.50;;
65535;SDS011;52145;49.342;9.116;2022-09-17T13:39:53;3.80;;;1.10;;
65535;SDS011;52145;49.342;9.116;2022-09-17T13:42:29;5.15;;;1.80;;
65535;SDS011;52145;49.342;9.116;2022-09-17T13:47:29;7.60;;;1.00;;
65535;SDS011;52145;49.342;9.116;2022-09-17T13:49:58;3.15;;;1.17;;
65535;SDS011;52145;49.342;9.116;2022-09-17T13:52:32;3.83;;;1.00;;
65535;SDS011;52145;49.342;9.116;2022-09-17T13:54:59;2.28;;;0.88;;
65535;SDS011;52145;49.342;9.116;2022-09-17T13:57:25;5.55;;;1.50;;
65535;SDS011;52145;49.342;9.116;2022-09-17T14:02:27;2.95;;;0.70;;
65535;SDS011;52145;49.342;9.116;2022-09-17T14:04:55;4.47;;;1.48;;
65535;SDS011;52145;49.342;9.116;2022-09-17T14:08:11;2.50;;;0.88;;
65535;SDS011;52145;49.342;9.116;2022-09-17T14:10:41;1.30;;;0.65;;
65535;SDS011;52145;49.342;9.116;2022-09-17T14:13:19;3.85;;;1.00;;
65535;SDS011;52145;49.342;9.116;2022-09-17T14:15:54;3.58;;;0.90;;
65535;SDS011;52145;49.342;9.116;2022-09-17T14:20:54;4.72;;;1.00;;
65535;SDS011;52145;49.342;9.116;2022-09-17T14:23:31;2.67;;;1.35;;
65535;SDS011;52145;49.342;9.116;2022-09-17T14:26:11;2.20;;;0.80;;
65535;SDS011;52145;49.342;9.116;2022-09-17T14:28:46;3.55;;;0.70;;
65535;SDS011;52145;49.342;9.116;2022-09-17T14:31:21;2.95;;;0.80;;
65535;SDS011;52145;49.342;9.116;2022-09-17T14:34:01;2.10;;;0.77;;
65535;SDS011;52145;49.342;9.116;2022-09-17T14:40:44;2.55;;;0.80;;
65535;SDS011;52145;49.342;9.116;2022-09-17T14:43:20;2.92;;;1.02;;
65535;SDS011;52145;49.342;9.116;2022-09-17T14:45:55;3.20;;;0.85;;
65535;SDS011;52145;49.342;9.116;2022-09-17T14:48:32;1.25;;;0.60;;
65535;SDS011;52145;49.342;9.116;2022-09-17T14:54:10;3.17;;;1.00;;
65535;SDS011;52145;49.342;9.116;2022-09-17T14:59:27;2.40;;;0.80;;
65535;SDS011;52145;49.342;9.116;2022-09-17T15:02:01;3.28;;;1.00;;
65535;SDS011;52145;49.342;9.116;2022-09-17T15:04:27;3.08;;;1.10;;
65535;SDS011;52145;49.342;9.116;2022-09-17T15:07:06;3.90;;;0.93;;
65535;SDS011;52145;49.342;9.116;2022-09-17T15:09:33;5.40;;;1.10;;
65535;SDS011;52145;49.342;9.116;2022-09-17T15:11:59;4.90;;;1.40;;
65535;SDS011;52145;49.342;9.116;2022-09-17T15:14:27;5.82;;;1.42;;
65535;SDS011;52145;49.342;9.116;2022-09-17T15:16:54;4.13;;;1.08;;
65535;SDS011;52145;49.342;9.116;2022-09-17T15:22:19;2.38;;;0.90;;
65535;SDS011;52145;49.342;9.116;2022-09-17T15:29:45;4.07;;;0.98;;
65535;SDS011;52145;49.342;9.116;2022-09-17T15:32:15;2.63;;;0.90;;
65535;SDS011;52145;49.342;9.116;2022-09-17T15:34:41;2.70;;;1.30;;
65535;SDS011;52145;49.342;9.116;2022-09-17T15:37:17;2.40;;;1.20;;
65535;SDS011;52145;49.342;9.116;2022-09-17T15:43:53;1.52;;;0.55;;
65535;SDS011;52145;49.342;9.116;2022-09-17T15:46:30;2.13;;;0.63;;
65535;SDS011;52145;49.342;9.116;2022-09-17T15:49:00;1.55;;;0.70;;
65535;SDS011;52145;49.342;9.116;2022-09-17T15:51:30;2.00;;;0.60;;
65535;SDS011;52145;49.342;9.116;2022-09-17T15:53:59;2.97;;;0.52;;
65535;SDS011;52145;49.342;9.116;2022-09-17T15:56:29;2.30;;;0.50;;
65535;SDS011;52145;49.342;9.116;2022-09-17T16:01:51;2.47;;;0.65;;
65535;SDS011;52145;49.342;9.116;2022-09-17T16:04:20;3.10;;;0.63;;
65535;SDS011;52145;49.342;9.116;2022-09-17T16:06:53;1.85;;;0.60;;
65535;SDS011;52145;49.342;9.116;2022-09-17T16:12:20;1.80;;;0.45;;
65535;SDS011;52145;49.342;9.116;2022-09-17T16:14:48;2.60;;;0.52;;
65535;SDS011;52145;49.342;9.116;2022-09-17T16:17:19;1.70;;;0.57;;
65535;SDS011;52145;49.342;9.116;2022-09-17T16:19:52;1.08;;;0.60;;
65535;SDS011;52145;49.342;9.116;2022-09-17T16:22:19;2.95;;;0.40;;
65535;SDS011;52145;49.342;9.116;2022-09-17T16:24:45;1.08;;;0.60;;
65535;SDS011;52145;49.342;9.116;2022-09-17T16:27:15;1.02;;;0.50;;
65535;SDS011;52145;49.342;9.116;2022-09-17T16:29:50;2.10;;;0.60;;
65535;SDS011;52145;49.342;9.116;2022-09-17T16:32:19;2.50;;;0.52;;
65535;SDS011;52145;49.342;9.116;2022-09-17T16:34:45;0.50;;;0.40;;
65535;SDS011;52145;49.342;9.116;2022-09-17T16:37:10;2.35;;;0.70;;
65535;SDS011;52145;49.342;9.116;2022-09-17T16:39:36;2.97;;;0.50;;
65535;SDS011;52145;49.342;9.116;2022-09-17T16:42:01;1.85;;;0.57;;
65535;SDS011;52145;49.342;9.116;2022-09-17T16:44:27;4.00;;;0.60;;
65535;SDS011;52145;49.342;9.116;2022-09-17T16:46:53;1.48;;;0.70;;
65535;SDS011;52145;49.342;9.116;2022-09-17T16:49:18;1.58;;;0.57;;
65535;SDS011;52145;49.342;9.116;2022-09-17T16:51:44;2.58;;;0.60;;
65535;SDS011;52145;49.342;9.116;2022-09-17T16:54:09;1.38;;;0.50;;
65535;SDS011;52145;49.342;9.116;2022-09-17T16:56:35;1.13;;;0.80;;
65535;SDS011;52145;49.342;9.116;2022-09-17T16:59:00;3.65;;;0.80;;
65535;SDS011;52145;49.342;9.116;2022-09-17T17:01:26;5.20;;;0.90;;
65535;SDS011;52145;49.342;9.116;2022-09-17T17:03:51;5.35;;;1.10;;
65535;SDS011;52145;49.342;9.116;2022-09-17T17:06:18;7.78;;;0.80;;
65535;SDS011;52145;49.342;9.116;2022-09-17T17:08:45;3.25;;;1.13;;
65535;SDS011;52145;49.342;9.116;2022-09-17T17:11:11;4.13;;;0.90;;
65535;SDS011;52145;49.342;9.116;2022-09-17T17:13:36;2.85;;;1.00;;
65535;SDS011;52145;49.342;9.116;2022-09-17T17:16:06;3.00;;;0.80;;
65535;SDS011;52145;49.342;9.116;2022-09-17T17:18:35;3.40;;;0.80;;
65535;SDS011;52145;49.342;9.116;2022-09-17T17:21:05;5.63;;;1.15;;
65535;SDS011;52145;49.342;9.116;2022-09-17T17:23:35;1.83;;;0.60;;
65535;SDS011;52145;49.342;9.116;2022-09-17T17:26:01;5.40;;;0.50;;
65535;SDS011;52145;49.342;9.116;2022-09-17T17:28:31;4.22;;;0.73;;
65535;SDS011;52145;49.342;9.116;2022-09-17T17:31:00;2.10;;;0.82;;
65535;SDS011;52145;49.342;9.116;2022-09-17T17:33:27;4.10;;;0.60;;
65535;SDS011;52145;49.342;9.116;2022-09-17T17:35:53;1.52;;;0.60;;
65535;SDS011;52145;49.342;9.116;2022-09-17T17:38:18;1.98;;;0.93;;
65535;SDS011;52145;49.342;9.116;2022-09-17T17:40:44;4.07;;;1.27;;
65535;SDS011;52145;49.342;9.116;2022-09-17T17:43:10;1.70;;;0.52;;
65535;SDS011;52145;49.342;9.116;2022-09-17T17:45:39;4.82;;;0.80;;
65535;SDS011;52145;49.342;9.116;2022-09-17T17:48:05;4.30;;;0.60;;
65535;SDS011;52145;49.342;9.116;2022-09-17T17:50:31;1.38;;;0.50;;
65535;SDS011;52145;49.342;9.116;2022-09-17T17:52:57;0.85;;;0.50;;
65535;SDS011;52145;49.342;9.116;2022-09-17T17:55:23;3.83;;;0.82;;